| Date | Time | Temp. (oF) | Dew Point (oF) | Rel. Hum. (%) | Press. (in.) | Wind Dir. | Wind Speed (mph) | Hourly Rainfall (in.) |
|
|---|---|---|---|---|---|---|---|---|---|
| 1 | 05/21 | 00:00 | 49 | 49 | 100 | 29.50 | SW | 0 | 0.00 |
| 2 | 05/20 | 23:00 | 49 | 49 | 100 | 29.50 | SW | 0 | 0.00 |
| 3 | 05/20 | 22:00 | 49 | 49 | 100 | 29.50 | SSW | 0 | 0.00 |
| 4 | 05/20 | 21:00 | 50 | 49 | 97 | 29.49 | WSW | 0 | 0.00 |
| 5 | 05/20 | 20:00 | 54 | 51 | 90 | 29.48 | SW | 2 | 0.00 |
| 6 | 05/20 | 19:00 | 56 | 52 | 89 | 29.44 | NNW | 4 | 0.00 |
| 7 | 05/20 | 18:00 | 52 | 51 | 100 | 29.48 | N | 1 | 0.01 |
| 8 | 05/20 | 17:00 | 50 | 50 | 100 | 29.49 | WNW | 2 | 0.01 |
| 9 | 05/20 | 16:00 | 50 | 50 | 100 | 29.48 | NNW | 3 | 0.04 |
| 10 | 05/20 | 15:00 | 50 | 50 | 100 | 29.45 | NNE | 5 | 0.19 |
| 11 | 05/20 | 14:00 | 50 | 50 | 100 | 29.46 | NNW | 7 | 0.23 |
| 12 | 05/20 | 13:00 | 50 | 49 | 99 | 29.43 | NE | 4 | 0.03 |
| 13 | 05/20 | 12:00 | 51 | 49 | 95 | 29.46 | NE | 2 | 0.00 |
| 14 | 05/20 | 11:00 | 51 | 50 | 97 | 29.48 | SE | 2 | 0.00 |
| 15 | 05/20 | 10:00 | 50 | 48 | 96 | 29.53 | ESE | 0 | 0.00 |
| 16 | 05/20 | 09:00 | 50 | 49 | 97 | 29.57 | SSE | 3 | 0.02 |
| 17 | 05/20 | 08:00 | 49 | 47 | 96 | 29.60 | SW | 1 | 0.03 |
| 18 | 05/20 | 07:00 | 47 | 45 | 96 | 29.62 | SSW | 9 | 0.00 |
| 19 | 05/20 | 06:00 | 43 | 42 | 98 | 29.62 | ENE | 1 | 0.00 |
| 20 | 05/20 | 05:00 | 42 | 41 | 98 | 29.63 | SSW | 0 | 0.00 |
| 21 | 05/20 | 04:00 | 42 | 41 | 98 | 29.64 | NE | 0 | 0.00 |
| 22 | 05/20 | 03:00 | 41 | 40 | 98 | 29.66 | SW | 0 | 0.00 |
| 23 | 05/20 | 02:00 | 41 | 39 | 96 | 29.68 | SW | 0 | 0.00 |
| 24 | 05/20 | 01:00 | 42 | 40 | 94 | 29.69 | SW | 0 | 0.00 |